Fredericksburg, Texas
Current Conditions -  °F | °C
As of 12:55 PM on Saturday 25 Oct 2014 (Local Time) from KT82 Reporting Station
Clear Clear  
Wind Chill: 78°   Ceiling: Unl
Heat Index: 79°   Visibility: 10mi
Dew Point: 58°   Wind: 7mph
Humidity: 49%   Direction: 210°SSW
Pressure: 30.19"   Gusts: NA
Location:  30.27°N, 98.87°W
Report Text: KT82 251755Z AUTO 21006KT 10SM CLR 26/14 A3019 RMK AO2 T02580144 10260 20122
Loading
Personal Weather Stations






























Interactive Weather Map
Tropical Storm Tracking
New forecast layout! Learn more

10-Day Weather Forecast

Advertisements
Track Severe Weather on mobile